sensor_id;sensor_type;location;lat;lon;timestamp;P1;durP1;ratioP1;P2;durP2;ratioP2
25319;SDS011;13256;49.012;8.610;2023-06-26T00:02:20;7.05;;;4.80;;
25319;SDS011;13256;49.012;8.610;2023-06-26T00:04:47;7.68;;;4.65;;
25319;SDS011;13256;49.012;8.610;2023-06-26T00:07:13;6.95;;;4.47;;
25319;SDS011;13256;49.012;8.610;2023-06-26T00:09:42;10.10;;;4.90;;
25319;SDS011;13256;49.012;8.610;2023-06-26T00:12:09;5.72;;;4.07;;
25319;SDS011;13256;49.012;8.610;2023-06-26T00:14:36;8.15;;;4.90;;
25319;SDS011;13256;49.012;8.610;2023-06-26T00:17:06;7.72;;;5.00;;
25319;SDS011;13256;49.012;8.610;2023-06-26T00:19:32;8.63;;;5.30;;
25319;SDS011;13256;49.012;8.610;2023-06-26T00:22:02;9.13;;;4.75;;
25319;SDS011;13256;49.012;8.610;2023-06-26T00:24:31;8.25;;;5.18;;
25319;SDS011;13256;49.012;8.610;2023-06-26T00:26:57;8.30;;;5.07;;
25319;SDS011;13256;49.012;8.610;2023-06-26T00:29:27;8.95;;;4.72;;
25319;SDS011;13256;49.012;8.610;2023-06-26T00:31:58;7.82;;;4.47;;
25319;SDS011;13256;49.012;8.610;2023-06-26T00:34:27;8.70;;;4.97;;
25319;SDS011;13256;49.012;8.610;2023-06-26T00:36:54;7.10;;;4.47;;
25319;SDS011;13256;49.012;8.610;2023-06-26T00:39:30;8.40;;;5.25;;
25319;SDS011;13256;49.012;8.610;2023-06-26T00:41:59;9.82;;;4.88;;
25319;SDS011;13256;49.012;8.610;2023-06-26T00:44:26;8.48;;;5.20;;
25319;SDS011;13256;49.012;8.610;2023-06-26T00:46:53;8.82;;;5.00;;
25319;SDS011;13256;49.012;8.610;2023-06-26T00:49:22;7.80;;;5.00;;
25319;SDS011;13256;49.012;8.610;2023-06-26T00:51:48;11.40;;;5.25;;
25319;SDS011;13256;49.012;8.610;2023-06-26T00:54:18;8.20;;;5.00;;
25319;SDS011;13256;49.012;8.610;2023-06-26T00:56:46;7.53;;;4.78;;
25319;SDS011;13256;49.012;8.610;2023-06-26T00:59:13;10.65;;;5.75;;
25319;SDS011;13256;49.012;8.610;2023-06-26T01:01:43;8.27;;;4.75;;
25319;SDS011;13256;49.012;8.610;2023-06-26T01:04:14;8.52;;;4.90;;
25319;SDS011;13256;49.012;8.610;2023-06-26T01:06:47;8.23;;;4.72;;
25319;SDS011;13256;49.012;8.610;2023-06-26T01:09:19;10.50;;;5.13;;
25319;SDS011;13256;49.012;8.610;2023-06-26T01:12:17;22.05;;;10.93;;
25319;SDS011;13256;49.012;8.610;2023-06-26T01:14:44;16.50;;;9.70;;
25319;SDS011;13256;49.012;8.610;2023-06-26T01:17:17;23.02;;;12.30;;
25319;SDS011;13256;49.012;8.610;2023-06-26T01:19:44;23.38;;;12.25;;
25319;SDS011;13256;49.012;8.610;2023-06-26T01:28:10;11.38;;;5.25;;
25319;SDS011;13256;49.012;8.610;2023-06-26T01:30:41;8.15;;;5.15;;
25319;SDS011;13256;49.012;8.610;2023-06-26T01:33:13;6.90;;;4.72;;
25319;SDS011;13256;49.012;8.610;2023-06-26T01:35:51;7.72;;;5.10;;
25319;SDS011;13256;49.012;8.610;2023-06-26T01:38:19;8.45;;;4.63;;
25319;SDS011;13256;49.012;8.610;2023-06-26T01:40:51;9.13;;;5.55;;
25319;SDS011;13256;49.012;8.610;2023-06-26T01:46:11;8.60;;;4.45;;
25319;SDS011;13256;49.012;8.610;2023-06-26T01:49:07;8.90;;;4.95;;
25319;SDS011;13256;49.012;8.610;2023-06-26T01:54:30;7.85;;;5.03;;
25319;SDS011;13256;49.012;8.610;2023-06-26T01:57:00;8.48;;;5.47;;
25319;SDS011;13256;49.012;8.610;2023-06-26T01:59:28;10.63;;;5.60;;
25319;SDS011;13256;49.012;8.610;2023-06-26T02:02:00;8.55;;;5.22;;
25319;SDS011;13256;49.012;8.610;2023-06-26T02:04:29;8.88;;;5.22;;
25319;SDS011;13256;49.012;8.610;2023-06-26T02:06:59;8.35;;;5.07;;
25319;SDS011;13256;49.012;8.610;2023-06-26T02:09:29;10.65;;;5.88;;
25319;SDS011;13256;49.012;8.610;2023-06-26T02:12:01;8.32;;;4.88;;
25319;SDS011;13256;49.012;8.610;2023-06-26T02:14:29;8.80;;;5.22;;
25319;SDS011;13256;49.012;8.610;2023-06-26T02:16:55;8.07;;;5.03;;
25319;SDS011;13256;49.012;8.610;2023-06-26T02:19:22;9.60;;;5.30;;
25319;SDS011;13256;49.012;8.610;2023-06-26T02:21:54;10.35;;;5.80;;
25319;SDS011;13256;49.012;8.610;2023-06-26T02:31:11;10.30;;;4.93;;
25319;SDS011;13256;49.012;8.610;2023-06-26T02:33:41;9.30;;;5.35;;
25319;SDS011;13256;49.012;8.610;2023-06-26T02:36:08;9.93;;;5.38;;
25319;SDS011;13256;49.012;8.610;2023-06-26T02:38:42;8.38;;;5.20;;
25319;SDS011;13256;49.012;8.610;2023-06-26T02:41:08;9.68;;;5.30;;
25319;SDS011;13256;49.012;8.610;2023-06-26T02:43:36;12.50;;;5.22;;
25319;SDS011;13256;49.012;8.610;2023-06-26T02:46:04;10.30;;;5.22;;
25319;SDS011;13256;49.012;8.610;2023-06-26T02:48:31;9.40;;;5.38;;
25319;SDS011;13256;49.012;8.610;2023-06-26T02:50:58;10.23;;;5.97;;
25319;SDS011;13256;49.012;8.610;2023-06-26T02:53:30;10.52;;;5.88;;
25319;SDS011;13256;49.012;8.610;2023-06-26T02:55:57;11.05;;;5.97;;
25319;SDS011;13256;49.012;8.610;2023-06-26T02:58:33;8.45;;;5.18;;
25319;SDS011;13256;49.012;8.610;2023-06-26T03:01:04;9.77;;;5.63;;
25319;SDS011;13256;49.012;8.610;2023-06-26T03:03:31;9.73;;;5.28;;
25319;SDS011;13256;49.012;8.610;2023-06-26T03:06:09;10.38;;;5.95;;
25319;SDS011;13256;49.012;8.610;2023-06-26T03:08:39;9.13;;;5.50;;
25319;SDS011;13256;49.012;8.610;2023-06-26T03:11:06;15.38;;;6.22;;
25319;SDS011;13256;49.012;8.610;2023-06-26T03:13:36;11.98;;;5.55;;
25319;SDS011;13256;49.012;8.610;2023-06-26T03:16:05;9.35;;;5.45;;
25319;SDS011;13256;49.012;8.610;2023-06-26T03:18:36;11.10;;;5.38;;
25319;SDS011;13256;49.012;8.610;2023-06-26T03:21:02;9.93;;;5.18;;
25319;SDS011;13256;49.012;8.610;2023-06-26T03:23:33;9.77;;;5.80;;
25319;SDS011;13256;49.012;8.610;2023-06-26T03:26:00;10.00;;;5.88;;
25319;SDS011;13256;49.012;8.610;2023-06-26T03:28:30;11.93;;;6.13;;
25319;SDS011;13256;49.012;8.610;2023-06-26T03:30:57;10.15;;;5.35;;
25319;SDS011;13256;49.012;8.610;2023-06-26T03:33:28;8.63;;;5.30;;
25319;SDS011;13256;49.012;8.610;2023-06-26T03:35:56;10.80;;;5.85;;
25319;SDS011;13256;49.012;8.610;2023-06-26T03:38:25;9.35;;;5.30;;
25319;SDS011;13256;49.012;8.610;2023-06-26T03:40:58;9.77;;;5.38;;
25319;SDS011;13256;49.012;8.610;2023-06-26T03:54:52;12.48;;;5.95;;
25319;SDS011;13256;49.012;8.610;2023-06-26T03:57:19;11.30;;;6.35;;
25319;SDS011;13256;49.012;8.610;2023-06-26T03:59:47;10.18;;;5.93;;
25319;SDS011;13256;49.012;8.610;2023-06-26T04:02:14;9.60;;;6.00;;
25319;SDS011;13256;49.012;8.610;2023-06-26T04:04:45;9.02;;;5.50;;
25319;SDS011;13256;49.012;8.610;2023-06-26T04:07:18;9.40;;;6.00;;
25319;SDS011;13256;49.012;8.610;2023-06-26T04:09:49;10.80;;;6.00;;
25319;SDS011;13256;49.012;8.610;2023-06-26T04:12:17;11.63;;;5.55;;
25319;SDS011;13256;49.012;8.610;2023-06-26T04:14:45;9.55;;;5.35;;
25319;SDS011;13256;49.012;8.610;2023-06-26T04:17:12;10.07;;;5.95;;
25319;SDS011;13256;49.012;8.610;2023-06-26T04:19:40;10.18;;;6.05;;
25319;SDS011;13256;49.012;8.610;2023-06-26T04:22:08;10.60;;;5.97;;
25319;SDS011;13256;49.012;8.610;2023-06-26T04:27:12;10.77;;;5.93;;
25319;SDS011;13256;49.012;8.610;2023-06-26T04:29:40;9.95;;;5.80;;
25319;SDS011;13256;49.012;8.610;2023-06-26T04:34:57;10.32;;;5.25;;
25319;SDS011;13256;49.012;8.610;2023-06-26T04:41:16;9.73;;;5.43;;
25319;SDS011;13256;49.012;8.610;2023-06-26T06:06:46;11.65;;;5.82;;
25319;SDS011;13256;49.012;8.610;2023-06-26T06:19:41;8.77;;;5.20;;
25319;SDS011;13256;49.012;8.610;2023-06-26T06:22:11;7.97;;;5.28;;
25319;SDS011;13256;49.012;8.610;2023-06-26T06:24:38;9.48;;;5.25;;
25319;SDS011;13256;49.012;8.610;2023-06-26T06:27:08;8.30;;;5.22;;
25319;SDS011;13256;49.012;8.610;2023-06-26T06:59:55;10.13;;;5.60;;
25319;SDS011;13256;49.012;8.610;2023-06-26T07:11:15;6.78;;;4.45;;
25319;SDS011;13256;49.012;8.610;2023-06-26T07:13:43;7.10;;;4.18;;
25319;SDS011;13256;49.012;8.610;2023-06-26T08:08:50;5.68;;;4.47;;
25319;SDS011;13256;49.012;8.610;2023-06-26T08:11:17;6.18;;;4.15;;
25319;SDS011;13256;49.012;8.610;2023-06-26T08:35:39;6.30;;;4.20;;
25319;SDS011;13256;49.012;8.610;2023-06-26T08:47:10;6.78;;;4.35;;
25319;SDS011;13256;49.012;8.610;2023-06-26T08:49:43;6.10;;;4.37;;
25319;SDS011;13256;49.012;8.610;2023-06-26T10:03:48;6.45;;;4.53;;
25319;SDS011;13256;49.012;8.610;2023-06-26T10:06:19;10.77;;;4.72;;
25319;SDS011;13256;49.012;8.610;2023-06-26T10:22:29;6.65;;;4.57;;
25319;SDS011;13256;49.012;8.610;2023-06-26T10:34:01;6.72;;;4.25;;
25319;SDS011;13256;49.012;8.610;2023-06-26T10:43:15;6.18;;;4.75;;
25319;SDS011;13256;49.012;8.610;2023-06-26T11:12:35;6.05;;;4.55;;
25319;SDS011;13256;49.012;8.610;2023-06-26T11:21:22;9.13;;;4.95;;
25319;SDS011;13256;49.012;8.610;2023-06-26T11:23:51;8.95;;;4.78;;
25319;SDS011;13256;49.012;8.610;2023-06-26T11:36:22;6.75;;;4.10;;
25319;SDS011;13256;49.012;8.610;2023-06-26T11:55:04;6.18;;;3.63;;
25319;SDS011;13256;49.012;8.610;2023-06-26T12:00:56;4.47;;;3.40;;
25319;SDS011;13256;49.012;8.610;2023-06-26T12:03:23;12.13;;;3.95;;
25319;SDS011;13256;49.012;8.610;2023-06-26T12:12:21;4.78;;;3.53;;
25319;SDS011;13256;49.012;8.610;2023-06-26T12:14:48;7.25;;;4.07;;
25319;SDS011;13256;49.012;8.610;2023-06-26T12:17:17;6.60;;;3.80;;
25319;SDS011;13256;49.012;8.610;2023-06-26T12:19:49;6.72;;;3.85;;
25319;SDS011;13256;49.012;8.610;2023-06-26T12:51:55;3.90;;;2.65;;
25319;SDS011;13256;49.012;8.610;2023-06-26T13:00:38;4.65;;;2.67;;
25319;SDS011;13256;49.012;8.610;2023-06-26T13:49:22;5.38;;;3.03;;
25319;SDS011;13256;49.012;8.610;2023-06-26T13:51:49;4.03;;;2.50;;
25319;SDS011;13256;49.012;8.610;2023-06-26T13:57:15;6.57;;;2.83;;
25319;SDS011;13256;49.012;8.610;2023-06-26T14:02:39;3.75;;;2.70;;
25319;SDS011;13256;49.012;8.610;2023-06-26T14:18:34;6.05;;;4.05;;
25319;SDS011;13256;49.012;8.610;2023-06-26T14:26:44;7.25;;;4.43;;
25319;SDS011;13256;49.012;8.610;2023-06-26T14:33:06;7.18;;;4.32;;
25319;SDS011;13256;49.012;8.610;2023-06-26T14:45:32;6.68;;;4.55;;
25319;SDS011;13256;49.012;8.610;2023-06-26T14:48:04;6.53;;;3.97;;
25319;SDS011;13256;49.012;8.610;2023-06-26T16:34:10;5.00;;;1.63;;
25319;SDS011;13256;49.012;8.610;2023-06-26T17:06:31;2.35;;;1.20;;
25319;SDS011;13256;49.012;8.610;2023-06-26T17:08:59;3.20;;;1.30;;
25319;SDS011;13256;49.012;8.610;2023-06-26T18:19:22;2.17;;;0.93;;
25319;SDS011;13256;49.012;8.610;2023-06-26T18:21:55;5.22;;;1.20;;
25319;SDS011;13256;49.012;8.610;2023-06-26T18:40:10;4.28;;;1.10;;
25319;SDS011;13256;49.012;8.610;2023-06-26T19:31:10;1.98;;;1.00;;
25319;SDS011;13256;49.012;8.610;2023-06-26T20:22:19;1.92;;;1.10;;
25319;SDS011;13256;49.012;8.610;2023-06-26T20:24:47;3.20;;;1.05;;
25319;SDS011;13256;49.012;8.610;2023-06-26T20:30:45;1.90;;;0.80;;
25319;SDS011;13256;49.012;8.610;2023-06-26T20:34:29;3.30;;;1.02;;
25319;SDS011;13256;49.012;8.610;2023-06-26T20:49:24;8.55;;;1.50;;
25319;SDS011;13256;49.012;8.610;2023-06-26T20:51:52;6.68;;;0.95;;
25319;SDS011;13256;49.012;8.610;2023-06-26T20:54:21;3.65;;;1.52;;
25319;SDS011;13256;49.012;8.610;2023-06-26T20:56:54;3.58;;;1.25;;
25319;SDS011;13256;49.012;8.610;2023-06-26T20:59:21;2.42;;;1.10;;
25319;SDS011;13256;49.012;8.610;2023-06-26T21:01:51;2.42;;;0.95;;
25319;SDS011;13256;49.012;8.610;2023-06-26T21:04:17;3.53;;;1.00;;
25319;SDS011;13256;49.012;8.610;2023-06-26T21:06:44;5.32;;;1.27;;
25319;SDS011;13256;49.012;8.610;2023-06-26T21:09:12;4.78;;;1.17;;
25319;SDS011;13256;49.012;8.610;2023-06-26T21:11:39;2.92;;;1.02;;
25319;SDS011;13256;49.012;8.610;2023-06-26T21:14:06;1.20;;;0.90;;
25319;SDS011;13256;49.012;8.610;2023-06-26T21:16:33;5.90;;;0.98;;
25319;SDS011;13256;49.012;8.610;2023-06-26T21:19:03;2.40;;;1.00;;
25319;SDS011;13256;49.012;8.610;2023-06-26T21:21:35;2.17;;;1.00;;
25319;SDS011;13256;49.012;8.610;2023-06-26T21:24:02;6.25;;;1.00;;
25319;SDS011;13256;49.012;8.610;2023-06-26T21:26:32;4.18;;;1.33;;
25319;SDS011;13256;49.012;8.610;2023-06-26T21:28:59;3.15;;;1.10;;
25319;SDS011;13256;49.012;8.610;2023-06-26T21:31:29;2.17;;;1.35;;
25319;SDS011;13256;49.012;8.610;2023-06-26T21:34:01;4.90;;;1.13;;
25319;SDS011;13256;49.012;8.610;2023-06-26T21:36:34;3.38;;;1.05;;
25319;SDS011;13256;49.012;8.610;2023-06-26T21:39:01;3.28;;;1.00;;
25319;SDS011;13256;49.012;8.610;2023-06-26T21:41:31;2.67;;;1.20;;
25319;SDS011;13256;49.012;8.610;2023-06-26T21:43:58;3.65;;;1.10;;
25319;SDS011;13256;49.012;8.610;2023-06-26T21:46:31;4.32;;;1.45;;
25319;SDS011;13256;49.012;8.610;2023-06-26T21:49:02;4.38;;;1.20;;
25319;SDS011;13256;49.012;8.610;2023-06-26T21:51:29;4.72;;;1.38;;
25319;SDS011;13256;49.012;8.610;2023-06-26T21:53:56;2.85;;;1.33;;
25319;SDS011;13256;49.012;8.610;2023-06-26T21:56:24;2.75;;;1.38;;
25319;SDS011;13256;49.012;8.610;2023-06-26T21:59:15;2.40;;;1.10;;
25319;SDS011;13256;49.012;8.610;2023-06-26T22:01:44;2.38;;;1.00;;
25319;SDS011;13256;49.012;8.610;2023-06-26T22:04:11;4.75;;;1.45;;
25319;SDS011;13256;49.012;8.610;2023-06-26T22:06:38;2.35;;;1.00;;
25319;SDS011;13256;49.012;8.610;2023-06-26T22:09:11;2.65;;;1.20;;
25319;SDS011;13256;49.012;8.610;2023-06-26T22:11:41;2.78;;;1.00;;
25319;SDS011;13256;49.012;8.610;2023-06-26T22:14:11;4.90;;;1.08;;
25319;SDS011;13256;49.012;8.610;2023-06-26T22:16:44;1.08;;;0.98;;
25319;SDS011;13256;49.012;8.610;2023-06-26T22:19:11;1.75;;;0.88;;
25319;SDS011;13256;49.012;8.610;2023-06-26T22:21:42;4.20;;;0.93;;
25319;SDS011;13256;49.012;8.610;2023-06-26T22:24:08;4.28;;;1.27;;
25319;SDS011;13256;49.012;8.610;2023-06-26T22:26:37;3.47;;;1.20;;
25319;SDS011;13256;49.012;8.610;2023-06-26T22:29:09;3.38;;;1.20;;
25319;SDS011;13256;49.012;8.610;2023-06-26T22:31:36;2.75;;;1.27;;
25319;SDS011;13256;49.012;8.610;2023-06-26T22:34:03;3.83;;;1.40;;
25319;SDS011;13256;49.012;8.610;2023-06-26T22:36:32;4.25;;;1.40;;
25319;SDS011;13256;49.012;8.610;2023-06-26T22:38:59;2.58;;;1.10;;
25319;SDS011;13256;49.012;8.610;2023-06-26T22:57:57;4.57;;;1.38;;
25319;SDS011;13256;49.012;8.610;2023-06-26T23:00:29;6.95;;;1.45;;
25319;SDS011;13256;49.012;8.610;2023-06-26T23:03:04;3.78;;;1.20;;
25319;SDS011;13256;49.012;8.610;2023-06-26T23:05:35;6.13;;;1.40;;
25319;SDS011;13256;49.012;8.610;2023-06-26T23:08:28;6.60;;;1.52;;
25319;SDS011;13256;49.012;8.610;2023-06-26T23:10:55;3.17;;;1.17;;
25319;SDS011;13256;49.012;8.610;2023-06-26T23:13:24;3.13;;;1.52;;
25319;SDS011;13256;49.012;8.610;2023-06-26T23:16:16;4.50;;;1.50;;
25319;SDS011;13256;49.012;8.610;2023-06-26T23:18:42;3.50;;;1.58;;
25319;SDS011;13256;49.012;8.610;2023-06-26T23:21:09;5.75;;;1.40;;
25319;SDS011;13256;49.012;8.610;2023-06-26T23:29:26;3.10;;;1.30;;
25319;SDS011;13256;49.012;8.610;2023-06-26T23:31:53;2.40;;;1.20;;
25319;SDS011;13256;49.012;8.610;2023-06-26T23:34:20;2.83;;;1.20;;
25319;SDS011;13256;49.012;8.610;2023-06-26T23:36:50;3.72;;;1.60;;
25319;SDS011;13256;49.012;8.610;2023-06-26T23:39:17;5.43;;;1.40;;
25319;SDS011;13256;49.012;8.610;2023-06-26T23:41:44;4.22;;;1.38;;
25319;SDS011;13256;49.012;8.610;2023-06-26T23:44:11;3.42;;;1.23;;
25319;SDS011;13256;49.012;8.610;2023-06-26T23:46:39;2.15;;;1.30;;
25319;SDS011;13256;49.012;8.610;2023-06-26T23:49:09;4.93;;;1.45;;
25319;SDS011;13256;49.012;8.610;2023-06-26T23:51:36;1.75;;;1.10;;
25319;SDS011;13256;49.012;8.610;2023-06-26T23:54:03;4.18;;;1.20;;
25319;SDS011;13256;49.012;8.610;2023-06-26T23:56:35;3.70;;;1.42;;
25319;SDS011;13256;49.012;8.610;2023-06-26T23:59:04;4.80;;;1.25;;
